Time;durP1;ratioP1;P1;durP2;ratioP2;P2;SDS_P1;SDS_P2;PMS_P1;PMS_P2;Temp;Humidity;BMP_temperature;BMP_pressure;BME280_temperature;BME280_humidity;BME280_pressure;Samples;Min_cycle;Max_cycle;Signal;HPM_P1;HPM_P2
2023/09/27 00:04:42;;;;;;;17.75;12.77;;;;;;;;;;10475687;28;20253;-79
2023/09/27 00:10:05;;;;;;;16.83;12.77;;;15.90;1.00;;;;;;10476946;28;20213;-79
2023/09/27 00:15:28;;;;;;;18.10;12.50;;;;;;;;;;10429402;28;20391;-79
2023/09/27 00:20:49;;;;;;;20.10;13.50;;;;;;;;;;10479899;28;20490;-79
2023/09/27 00:26:11;;;;;;;17.00;12.35;;;;;;;;;;10481246;28;20223;-79
2023/09/27 00:31:33;;;;;;;17.30;11.73;;;;;;;;;;10479900;28;20201;-79
2023/09/27 00:36:55;;;;;;;17.38;12.77;;;;;;;;;;10483752;28;20415;-77
2023/09/27 00:42:17;;;;;;;14.93;11.85;;;;;;;;;;10467945;28;20496;-77
2023/09/27 00:47:39;;;;;;;17.92;12.73;;;;;;;;;;10484454;28;20516;-76
2023/09/27 00:53:01;;;;;;;16.23;12.63;;;;;;;;;;10482238;28;20198;-78
2023/09/27 00:58:24;;;;;;;20.42;12.85;;;;;;;;;;10483048;28;20270;-78
2023/09/27 01:03:46;;;;;;;16.92;13.10;;;;;;;;;;10495242;28;20223;-76
2023/09/27 01:09:08;;;;;;;18.60;13.70;;;;;;;;;;10440193;28;20202;-76
2023/09/27 01:14:29;;;;;;;23.02;14.93;;;;;;;;;;10438729;28;20205;-77
2023/09/27 01:19:52;;;;;;;21.42;13.80;;;15.20;1.00;;;;;;10440143;28;20207;-77
2023/09/27 01:25:17;;;;;;;22.67;14.90;;;15.30;1.00;;;;;;10439721;28;20217;-76
2023/09/27 01:30:38;;;;;;;21.38;14.38;;;15.10;99.90;;;;;;10438309;28;20242;-79
2023/09/27 01:36:02;;;;;;;25.55;15.07;;;15.20;99.90;;;;;;10437864;28;20277;-79
2023/09/27 01:41:24;;;;;;;27.63;16.30;;;15.10;99.90;;;;;;10410791;28;20373;-79
2023/09/27 01:46:45;;;;;;;27.10;16.63;;;15.10;1.00;;;;;;10441010;28;20248;-76
2023/09/27 01:52:07;;;;;;;33.35;17.83;;;15.00;99.90;;;;;;10438212;28;20201;-77
2023/09/27 01:57:28;;;;;;;25.35;16.35;;;15.00;1.00;;;;;;10438393;28;20190;-78
2023/09/27 02:03:00;;;;;;;30.15;17.05;;;14.90;39.50;;;;;;10437126;28;20213;-77
2023/09/27 02:08:22;;;;;;;34.88;18.48;;;14.90;18.50;;;;;;10410713;28;20244;-78
2023/09/27 02:13:43;;;;;;;36.38;19.67;;;14.90;99.90;;;;;;10432594;28;20206;-77
2023/09/27 02:19:05;;;;;;;37.25;18.95;;;14.90;95.90;;;;;;10438574;28;20233;-77
2023/09/27 02:24:26;;;;;;;27.13;17.92;;;14.80;99.90;;;;;;10410348;28;20224;-77
2023/09/27 02:29:48;;;;;;;28.73;18.23;;;14.60;1.00;;;;;;10469003;28;20307;-78
2023/09/27 02:35:11;;;;;;;32.00;19.38;;;14.70;99.90;;;;;;10395999;28;20270;-79
2023/09/27 02:40:33;;;;;;;39.25;22.13;;;14.70;99.90;;;;;;10438309;28;20471;-77
2023/09/27 02:45:54;;;;;;;38.33;21.58;;;14.80;99.90;;;;;;10450122;28;20525;-78
2023/09/27 02:51:16;;;;;;;41.33;23.20;;;14.80;1.00;;;;;;10432141;28;20265;-77
2023/09/27 02:56:37;;;;;;;46.92;24.27;;;14.80;1.00;;;;;;10444620;28;20274;-78
2023/09/27 03:01:58;;;;;;;41.75;23.08;;;14.80;99.90;;;;;;10436216;28;20201;-77
2023/09/27 03:07:20;;;;;;;40.88;22.92;;;14.80;1.00;;;;;;10434120;28;20246;-77
2023/09/27 03:12:42;;;;;;;36.33;21.42;;;14.70;1.00;;;;;;10449381;28;20200;-78
2023/09/27 03:18:04;;;;;;;36.28;19.80;;;14.70;74.60;;;;;;10409650;28;20204;-77
2023/09/27 03:23:26;;;;;;;34.42;18.92;;;14.70;1.00;;;;;;10394278;28;20210;-78
2023/09/27 03:28:51;;;;;;;32.13;20.20;;;14.60;1.00;;;;;;10407706;28;20400;-76
2023/09/27 03:34:13;;;;;;;35.75;19.80;;;14.50;1.00;;;;;;10410044;28;20234;-76
2023/09/27 03:39:35;;;;;;;31.35;18.85;;;14.60;1.00;;;;;;10431715;28;20205;-76
2023/09/27 03:44:57;;;;;;;29.48;19.08;;;14.60;1.00;;;;;;10435416;28;20242;-75
2023/09/27 03:50:18;;;;;;;27.55;17.35;;;14.60;1.00;;;;;;10395323;28;20187;-77
2023/09/27 03:55:40;;;;;;;25.50;16.30;;;14.50;99.90;;;;;;10419565;28;20228;-77
2023/09/27 04:01:01;;;;;;;26.75;16.15;;;14.50;99.90;;;;;;10456925;28;20266;-77
2023/09/27 04:06:22;;;;;;;30.27;17.67;;;14.50;99.90;;;;;;10461057;28;20245;-77
2023/09/27 04:11:44;;;;;;;28.13;17.02;;;14.50;1.00;;;;;;10497945;28;20185;-77
2023/09/27 04:17:05;;;;;;;28.52;16.35;;;14.60;1.00;;;;;;10466752;28;20289;-78
2023/09/27 04:22:27;;;;;;;28.85;18.08;;;14.60;1.00;;;;;;10442011;28;20190;-78
2023/09/27 04:27:50;;;;;;;30.98;19.17;;;14.60;76.00;;;;;;10453845;28;20305;-79
2023/09/27 04:33:11;;;;;;;36.63;20.63;;;14.60;99.90;;;;;;10465851;28;20423;-79
2023/09/27 04:38:33;;;;;;;32.03;19.42;;;14.60;99.90;;;;;;10473309;28;20202;-78
2023/09/27 04:43:54;;;;;;;32.83;20.58;;;14.60;99.90;;;;;;10468570;28;20200;-79
2023/09/27 04:49:15;;;;;;;45.10;22.83;;;14.60;99.90;;;;;;10482700;28;20309;-79
2023/09/27 04:54:36;;;;;;;41.85;22.13;;;14.50;1.00;;;;;;10451320;28;20200;-79
2023/09/27 04:59:58;;;;;;;36.28;21.70;;;14.60;1.00;;;;;;10481093;28;20436;-79
2023/09/27 05:05:19;;;;;;;38.00;22.90;;;14.70;1.00;;;;;;10480628;28;20236;-78
2023/09/27 05:10:40;;;;;;;33.20;20.33;;;14.80;1.00;;;;;;10482114;28;20198;-77
2023/09/27 05:16:01;;;;;;;33.45;20.58;;;14.90;1.00;;;;;;10474551;28;20253;-79
2023/09/27 05:21:22;;;;;;;26.50;18.05;;;14.90;1.00;;;;;;10425647;28;20556;-79
2023/09/27 05:26:44;;;;;;;33.25;21.98;;;14.90;1.00;;;;;;10454910;28;20236;-78
2023/09/27 05:32:05;;;;;;;28.95;19.30;;;14.90;1.00;;;;;;10466515;28;20199;-75
2023/09/27 05:37:28;;;;;;;26.15;20.67;;;15.00;1.00;;;;;;10462421;28;20206;-78
2023/09/27 05:42:50;;;;;;;25.65;19.55;;;15.00;1.00;;;;;;10480155;28;20258;-78
2023/09/27 05:48:14;;;;;;;21.52;17.38;;;15.00;1.00;;;;;;10479640;28;20331;-78
2023/09/27 05:53:35;;;;;;;22.33;17.67;;;14.90;1.00;;;;;;10479291;28;20189;-78
2023/09/27 05:58:59;;;;;;;37.25;23.65;;;14.90;64.40;;;;;;10479403;28;20202;-76
2023/09/27 06:04:20;;;;;;;28.58;18.45;;;15.00;15.40;;;;;;10478505;28;20252;-79
2023/09/27 06:09:42;;;;;;;16.25;14.18;;;15.20;1.00;;;;;;10444836;28;20214;-76
2023/09/27 06:15:04;;;;;;;19.52;15.23;;;15.20;1.00;;;;;;10479355;28;20235;-77
2023/09/27 06:20:29;;;;;;;19.17;14.32;;;15.30;1.00;;;;;;10491106;28;20253;-78
2023/09/27 06:25:51;;;;;;;18.88;14.30;;;15.50;1.00;;;;;;10478875;28;20475;-78
2023/09/27 06:31:13;;;;;;;22.30;16.98;;;15.60;1.00;;;;;;10479009;28;20226;-78
2023/09/27 06:36:34;;;;;;;26.25;19.23;;;15.80;1.00;;;;;;10477822;28;20209;-77
2023/09/27 06:41:55;;;;;;;23.15;17.00;;;16.00;1.00;;;;;;10478315;28;20273;-76
2023/09/27 06:47:17;;;;;;;21.70;16.48;;;16.20;1.00;;;;;;10424110;28;20226;-76
2023/09/27 06:52:40;;;;;;;17.35;14.25;;;16.30;1.00;;;;;;10475117;28;20195;-76
2023/09/27 06:58:01;;;;;;;23.83;17.23;;;16.30;1.00;;;;;;10478084;28;20253;-76
2023/09/27 07:03:27;;;;;;;19.13;15.30;;;16.30;1.00;;;;;;10476788;28;20379;-77
2023/09/27 07:08:52;;;;;;;29.77;18.40;;;16.40;1.00;;;;;;10477507;28;20382;-78
2023/09/27 07:14:15;;;;;;;26.92;19.10;;;16.40;1.00;;;;;;10452645;28;20253;-78
2023/09/27 07:19:37;;;;;;;34.58;24.05;;;16.40;1.00;;;;;;10455514;28;20316;-80
2023/09/27 07:24:58;;;;;;;27.85;21.25;;;16.60;1.00;;;;;;10459487;28;20232;-78
2023/09/27 07:30:23;;;;;;;29.10;20.45;;;16.70;1.00;;;;;;10457675;28;20242;-76
2023/09/27 07:35:46;;;;;;;29.02;19.05;;;16.90;1.00;;;;;;10455172;28;20286;-78
2023/09/27 07:41:10;;;;;;;27.05;20.08;;;17.10;1.00;;;;;;10453668;28;20297;-77
2023/09/27 07:46:32;;;;;;;28.75;19.55;;;17.10;1.00;;;;;;10471217;28;20276;-78
2023/09/27 07:51:53;;;;;;;32.45;22.23;;;17.20;1.00;;;;;;10470705;28;20192;-80
2023/09/27 07:57:15;;;;;;;26.23;20.95;;;17.40;1.00;;;;;;10466424;28;20207;-78
2023/09/27 08:02:38;;;;;;;23.92;18.42;;;17.50;1.00;;;;;;10471325;28;20203;-80
2023/09/27 08:07:59;;;;;;;25.90;19.35;;;17.80;1.00;;;;;;10429370;28;20248;-78
2023/09/27 08:13:20;;;;;;;35.40;24.90;;;18.00;99.90;;;;;;10454264;28;20254;-77
2023/09/27 08:18:44;;;;;;;28.05;19.98;;;18.10;1.00;;;;;;10481717;28;20220;-79
2023/09/27 08:24:06;;;;;;;24.90;18.30;;;18.20;1.00;;;;;;10475772;28;20238;-79
2023/09/27 08:29:28;;;;;;;23.83;18.27;;;18.50;1.00;;;;;;10441266;28;20192;-76
2023/09/27 08:34:49;;;;;;;34.10;24.42;;;18.70;99.90;;;;;;10482550;28;20282;-78
2023/09/27 08:40:15;;;;;;;29.42;20.83;;;19.10;1.00;;;;;;10473496;28;20200;-77
2023/09/27 08:45:38;;;;;;;29.15;21.55;;;;;;;;;;10459243;28;20247;-77
2023/09/27 08:51:04;;;;;;;30.52;23.45;;;;;;;;;;10477751;28;20233;-80
2023/09/27 08:56:28;;;;;;;19.70;16.23;;;;;;;;;;10462823;28;20216;-79
2023/09/27 09:01:52;;;;;;;21.60;15.07;;;21.40;1.00;;;;;;10477886;28;20192;-80
2023/09/27 09:07:13;;;;;;;20.10;16.15;;;22.00;99.90;;;;;;10463083;28;20238;-80
2023/09/27 09:12:34;;;;;;;23.25;17.90;;;;;;;;;;10457730;28;20215;-75
2023/09/27 09:17:59;;;;;;;21.52;15.60;;;;;;;;;;10456265;28;20267;-80
2023/09/27 09:23:33;;;;;;;19.77;13.30;;;25.70;1.00;;;;;;10483663;28;20203;-79
2023/09/27 09:28:59;;;;;;;23.50;16.10;;;26.60;99.90;;;;;;10474163;28;20247;-79
2023/09/27 09:34:21;;;;;;;19.90;16.13;;;26.90;1.00;;;;;;10453830;28;20204;-78
2023/09/27 09:39:43;;;;;;;17.98;14.02;;;;;;;;;;10473851;28;20373;-81
2023/09/27 09:45:12;;;;;;;16.23;13.25;;;28.40;99.90;;;;;;10458153;28;20545;-78
2023/09/27 09:50:33;;;;;;;16.20;11.13;;;28.40;99.90;;;;;;10474371;28;20214;-78
2023/09/27 09:55:59;;;;;;;14.90;12.07;;;29.20;99.90;;;;;;10473484;28;20513;-79
2023/09/27 10:01:42;;;;;;;15.15;12.55;;;29.70;99.90;;;;;;10472159;28;20207;-78
2023/09/27 10:07:04;;;;;;;19.35;12.52;;;30.10;99.90;;;;;;10462729;28;20435;-78
2023/09/27 10:12:28;;;;;;;15.07;11.55;;;30.40;99.90;;;;;;10458132;28;20294;-80
2023/09/27 10:17:49;;;;;;;11.60;9.73;;;30.40;99.90;;;;;;10473120;28;20211;-79
2023/09/27 10:23:10;;;;;;;17.98;11.88;;;30.80;99.90;;;;;;10459308;28;20299;-79
2023/09/27 10:28:32;;;;;;;16.30;11.63;;;30.90;99.90;;;;;;10490851;28;20239;-77
2023/09/27 10:39:13;;;;;;;10.82;9.25;;;30.90;99.90;;;;;;10455613;28;20211;-79
2023/09/27 10:44:36;;;;;;;12.80;10.23;;;;;;;;;;10415313;28;20204;-79
2023/09/27 10:49:57;;;;;;;13.77;11.18;;;31.60;99.90;;;;;;10416037;28;20228;-79
2023/09/27 10:55:18;;;;;;;11.85;9.77;;;31.80;99.90;;;;;;10418362;28;20206;-78
2023/09/27 11:00:57;;;;;;;13.20;9.75;;;31.90;99.90;;;;;;10471137;28;20537;-76
2023/09/27 11:06:18;;;;;;;19.75;11.95;;;32.60;1.00;;;;;;10470815;28;20239;-79
2023/09/27 11:11:47;;;;;;;25.85;16.67;;;32.80;99.90;;;;;;10428853;28;20199;-80
2023/09/27 11:17:22;;;;;;;41.83;23.90;;;;;;;;;;10453231;28;20294;-79
2023/09/27 11:22:44;;;;;;;23.00;14.45;;;33.00;99.90;;;;;;10439118;28;20528;-78
2023/09/27 11:28:05;;;;;;;26.95;13.45;;;32.90;99.90;;;;;;10471398;28;20247;-79
2023/09/27 11:33:32;;;;;;;16.33;10.52;;;33.20;99.90;;;;;;10470771;28;20253;-79
2023/09/27 11:38:53;;;;;;;14.52;9.80;;;33.10;99.90;;;;;;10412102;28;20204;-78
2023/09/27 11:44:26;;;;;;;17.02;10.63;;;33.10;99.90;;;;;;10428985;28;20291;-78
2023/09/27 11:49:49;;;;;;;13.30;9.75;;;32.80;99.90;;;;;;10457259;28;20191;-78
2023/09/27 11:55:11;;;;;;;20.20;11.60;;;33.00;99.90;;;;;;10455246;28;20204;-79
2023/09/27 12:00:32;;;;;;;17.45;11.50;;;32.90;99.90;;;;;;10450116;28;20261;-78
2023/09/27 12:05:54;;;;;;;15.85;10.70;;;33.00;99.90;;;;;;10457020;28;20292;-79
2023/09/27 12:11:16;;;;;;;12.20;8.52;;;33.10;99.90;;;;;;10455021;28;20223;-82
2023/09/27 12:16:37;;;;;;;19.83;9.00;;;33.50;99.90;;;;;;10474013;28;20483;-80
2023/09/27 12:21:59;;;;;;;10.55;8.45;;;32.80;99.90;;;;;;10434838;28;20730;-79
2023/09/27 12:27:20;;;;;;;10.55;7.82;;;32.40;99.90;;;;;;10464598;28;20247;-79
2023/09/27 12:32:42;;;;;;;15.15;8.80;;;32.10;99.90;;;;;;10467042;28;20439;-80
2023/09/27 12:38:06;;;;;;;10.90;7.75;;;32.40;99.90;;;;;;10478351;28;20277;-78
2023/09/27 12:43:27;;;;;;;11.10;8.00;;;32.30;99.90;;;;;;10476992;28;20230;-76
2023/09/27 12:48:48;;;;;;;13.25;8.65;;;32.10;99.90;;;;;;10478011;28;20428;-77
2023/09/27 12:54:10;;;;;;;12.57;8.38;;;31.70;99.90;;;;;;10461662;28;20208;-78
2023/09/27 12:59:31;;;;;;;12.32;7.93;;;31.40;99.90;;;;;;10493107;28;20237;-80
2023/09/27 13:04:52;;;;;;;24.83;8.93;;;31.50;99.90;;;;;;10476653;28;20247;-77
2023/09/27 13:10:14;;;;;;;11.00;7.28;;;31.70;99.90;;;;;;10477138;28;20327;-79
2023/09/27 13:15:36;;;;;;;10.43;6.40;;;31.40;99.90;;;;;;10478995;28;20212;-78
2023/09/27 13:20:57;;;;;;;10.60;6.53;;;31.30;99.90;;;;;;10462957;28;20479;-77
2023/09/27 13:26:19;;;;;;;8.75;6.80;;;31.00;99.90;;;;;;10434490;28;20246;-76
2023/09/27 13:31:41;;;;;;;9.10;6.28;;;30.30;99.90;;;;;;10450677;28;20218;-78
2023/09/27 13:37:02;;;;;;;8.68;6.22;;;29.70;99.90;;;;;;10474585;28;20499;-79
2023/09/27 13:42:24;;;;;;;11.77;7.30;;;29.30;99.90;;;;;;10464561;28;20610;-79
2023/09/27 13:47:46;;;;;;;10.65;7.65;;;29.40;99.90;;;;;;10475988;28;20234;-78
2023/09/27 13:53:07;;;;;;;8.52;6.93;;;29.10;99.90;;;;;;10470478;28;20191;-75
2023/09/27 13:58:28;;;;;;;10.77;6.40;;;29.20;99.90;;;;;;10470735;28;20246;-76
2023/09/27 14:03:49;;;;;;;13.23;7.57;;;29.00;99.90;;;;;;10461479;28;20196;-79
2023/09/27 14:09:11;;;;;;;18.55;12.02;;;28.40;99.90;;;;;;10435771;28;20271;-79
2023/09/27 14:14:33;;;;;;;17.65;8.98;;;27.90;99.90;;;;;;10439891;28;20208;-76
2023/09/27 14:19:57;;;;;;;17.10;9.35;;;27.40;99.90;;;;;;10433940;28;20250;-78
2023/09/27 14:25:19;;;;;;;16.55;8.32;;;27.20;99.90;;;;;;10416646;28;20246;-80
2023/09/27 14:30:41;;;;;;;13.02;7.32;;;27.00;99.90;;;;;;10430877;28;20235;-78
2023/09/27 14:36:05;;;;;;;12.13;7.55;;;26.70;99.90;;;;;;10417377;28;20231;-80
2023/09/27 14:41:29;;;;;;;11.25;7.10;;;26.60;99.90;;;;;;10431652;28;20280;-78
2023/09/27 14:46:50;;;;;;;11.18;8.52;;;26.70;99.90;;;;;;10430336;28;20258;-78
2023/09/27 14:52:11;;;;;;;8.32;6.85;;;26.90;99.90;;;;;;10415460;28;20212;-79
2023/09/27 14:57:33;;;;;;;9.55;6.43;;;27.20;99.90;;;;;;10431176;28;20200;-79
2023/09/27 15:02:55;;;;;;;18.48;9.75;;;27.30;99.90;;;;;;10439571;28;20205;-81
2023/09/27 15:08:17;;;;;;;18.88;11.90;;;26.80;99.90;;;;;;10433057;28;20236;-77
2023/09/27 15:13:38;;;;;;;33.83;17.73;;;26.30;99.90;;;;;;10432436;28;20210;-77
2023/09/27 15:18:59;;;;;;;16.90;11.07;;;26.00;99.90;;;;;;10424937;28;20214;-78
2023/09/27 15:24:23;;;;;;;16.50;10.85;;;25.80;99.90;;;;;;10420585;28;20239;-77
2023/09/27 15:29:45;;;;;;;24.98;15.57;;;;;;;;;;10431709;28;20275;-77
2023/09/27 15:35:10;;;;;;;23.60;14.00;;;;;;;;;;10416186;28;20483;-77
2023/09/27 15:40:33;;;;;;;21.58;11.95;;;;;;;;;;10418343;28;20239;-76
2023/09/27 15:46:01;;;;;;;15.25;10.70;;;25.10;99.90;;;;;;10419442;28;20242;-76
2023/09/27 15:51:22;;;;;;;15.30;12.23;;;24.90;99.90;;;;;;10423778;28;20499;-76
2023/09/27 15:56:44;;;;;;;18.20;13.18;;;24.80;99.90;;;;;;10425839;28;20347;-77
2023/09/27 16:02:06;;;;;;;19.85;11.45;;;24.60;99.90;;;;;;10440904;28;20238;-75
2023/09/27 16:07:27;;;;;;;21.13;12.38;;;24.50;99.90;;;;;;10442987;28;20404;-76
2023/09/27 16:12:49;;;;;;;16.77;10.20;;;;;;;;;;10430969;28;20460;-76
2023/09/27 16:25:07;;;;;;;20.60;13.27;;;23.90;1.00;;;;;;10441213;28;20199;-75
2023/09/27 16:30:30;;;;;;;20.38;15.02;;;;;;;;;;10436052;28;20204;-77
2023/09/27 16:35:51;;;;;;;19.70;14.75;;;23.30;1.00;;;;;;10442506;28;20204;-77
2023/09/27 16:41:19;;;;;;;27.00;15.48;;;24.60;1.00;;;;;;10441770;28;20200;-75
2023/09/27 16:46:40;;;;;;;29.05;17.63;;;;;;;;;;10422878;28;20281;-76
2023/09/27 16:52:02;;;;;;;33.08;16.05;;;22.60;3.90;;;;;;10442229;28;20426;-77
2023/09/27 16:57:24;;;;;;;21.80;15.00;;;22.40;99.90;;;;;;10441580;28;20207;-77
2023/09/27 17:02:46;;;;;;;17.35;12.75;;;22.20;33.00;;;;;;10478894;28;20736;-78
2023/09/27 17:08:07;;;;;;;25.23;14.73;;;22.10;1.00;;;;;;10464626;28;20315;-76
2023/09/27 17:13:31;;;;;;;23.90;16.15;;;;;;;;;;10462236;28;20199;-75
2023/09/27 17:18:53;;;;;;;26.08;17.92;;;;;;;;;;10418319;28;20203;-75
2023/09/27 17:24:16;;;;;;;38.72;22.67;;;;;;;;;;10425182;28;20201;-75
2023/09/27 17:29:39;;;;;;;50.53;31.75;;;21.40;1.00;;;;;;10439107;28;20547;-76
2023/09/27 17:35:00;;;;;;;44.58;27.88;;;21.20;1.00;;;;;;10440492;28;20199;-76
2023/09/27 17:40:22;;;;;;;35.15;24.05;;;21.20;99.90;;;;;;10439053;28;20268;-75
2023/09/27 17:45:49;;;;;;;28.00;20.55;;;20.90;1.00;;;;;;10438708;28;20219;-75
2023/09/27 17:51:11;;;;;;;30.08;22.15;;;20.90;1.00;;;;;;10427934;28;20246;-74
2023/09/27 17:56:33;;;;;;;31.63;22.20;;;20.70;1.00;;;;;;10439457;28;20232;-75
2023/09/27 18:01:55;;;;;;;32.55;23.00;;;20.70;1.00;;;;;;10412093;28;20256;-76
2023/09/27 18:07:17;;;;;;;32.60;23.88;;;20.40;1.00;;;;;;10438214;28;20415;-75
2023/09/27 18:12:38;;;;;;;30.23;23.48;;;20.40;1.00;;;;;;10446545;28;20201;-78
2023/09/27 18:17:59;;;;;;;35.97;25.08;;;20.40;99.90;;;;;;10438574;28;20484;-78
2023/09/27 18:23:20;;;;;;;33.88;25.65;;;20.30;99.90;;;;;;10436858;28;20196;-78
2023/09/27 18:28:42;;;;;;;39.83;27.92;;;20.20;99.90;;;;;;10439325;28;20224;-79
2023/09/27 18:34:03;;;;;;;35.42;25.52;;;20.10;99.90;;;;;;10436334;28;20220;-78
2023/09/27 18:39:24;;;;;;;46.88;27.77;;;20.00;1.00;;;;;;10443236;28;20204;-78
2023/09/27 18:44:45;;;;;;;37.97;27.00;;;19.90;99.90;;;;;;10437703;28;20184;-76
2023/09/27 18:50:07;;;;;;;46.45;28.20;;;19.80;1.00;;;;;;10436279;28;20223;-77
2023/09/27 18:55:28;;;;;;;39.13;28.90;;;19.80;1.00;;;;;;10437174;28;20390;-79
2023/09/27 19:00:49;;;;;;;49.58;32.85;;;19.70;99.90;;;;;;10435030;28;20196;-76
2023/09/27 19:06:14;;;;;;;57.97;37.40;;;19.60;1.00;;;;;;10434167;28;20602;-78
2023/09/27 19:11:36;;;;;;;54.20;35.35;;;19.50;99.90;;;;;;10434067;28;20239;-78
2023/09/27 19:16:57;;;;;;;52.17;31.67;;;19.50;99.90;;;;;;10435179;28;20211;-78
2023/09/27 19:22:18;;;;;;;48.75;30.00;;;19.40;1.00;;;;;;10435140;28;20379;-79
2023/09/27 19:27:39;;;;;;;49.80;29.45;;;19.30;99.90;;;;;;10435666;28;20224;-78
2023/09/27 19:33:01;;;;;;;41.63;27.20;;;19.30;99.90;;;;;;10433771;28;20200;-79
2023/09/27 19:38:22;;;;;;;38.15;24.20;;;19.20;99.90;;;;;;10418794;28;20223;-79
2023/09/27 19:43:43;;;;;;;36.58;22.92;;;19.30;99.90;;;;;;10435642;28;20200;-79
2023/09/27 19:49:04;;;;;;;32.92;22.27;;;19.20;99.90;;;;;;10434390;28;20518;-78
2023/09/27 19:54:26;;;;;;;37.30;23.83;;;19.10;1.00;;;;;;10432053;28;20231;-78
2023/09/27 19:59:47;;;;;;;32.10;21.35;;;19.00;99.90;;;;;;10446940;28;20200;-79
2023/09/27 20:05:09;;;;;;;28.98;20.50;;;18.90;99.90;;;;;;10394294;28;20267;-78
2023/09/27 20:10:30;;;;;;;27.13;20.20;;;18.80;99.90;;;;;;10411335;28;20248;-79
2023/09/27 20:15:51;;;;;;;28.75;20.60;;;18.80;1.00;;;;;;10432811;28;20216;-78
2023/09/27 20:21:12;;;;;;;32.45;20.83;;;18.60;1.00;;;;;;10434251;28;20446;-78
2023/09/27 20:26:34;;;;;;;33.38;19.35;;;18.70;1.00;;;;;;10434197;28;20223;-78
2023/09/27 20:31:56;;;;;;;26.00;19.60;;;18.70;1.00;;;;;;10432640;28;20563;-79
2023/09/27 20:37:17;;;;;;;25.15;18.95;;;18.50;22.00;;;;;;10451527;28;20487;-78
2023/09/27 20:42:38;;;;;;;27.02;19.50;;;18.60;99.90;;;;;;10442802;28;20216;-79
2023/09/27 20:47:59;;;;;;;25.63;18.50;;;18.60;99.90;;;;;;10442170;28;20295;-79
2023/09/27 20:53:21;;;;;;;29.60;17.77;;;18.60;1.00;;;;;;10429446;28;20541;-79
2023/09/27 20:58:42;;;;;;;21.77;16.15;;;18.50;1.00;;;;;;10453387;28;20224;-79
2023/09/27 21:04:04;;;;;;;24.27;16.88;;;18.60;1.00;;;;;;10404349;28;20280;-78
2023/09/27 21:09:25;;;;;;;22.58;17.73;;;18.50;1.00;;;;;;10441474;28;20262;-78
2023/09/27 21:14:46;;;;;;;24.50;17.52;;;18.50;99.90;;;;;;10439695;28;20408;-78
2023/09/27 21:20:08;;;;;;;25.92;17.92;;;18.40;1.00;;;;;;10440673;28;20192;-79
2023/09/27 21:25:29;;;;;;;27.13;20.08;;;18.40;1.00;;;;;;10439004;28;20197;-78
2023/09/27 21:30:52;;;;;;;33.08;21.10;;;;;;;;;;10440742;28;20295;-78
2023/09/27 21:36:14;;;;;;;28.80;20.05;;;18.30;99.90;;;;;;10440454;28;20211;-78
2023/09/27 21:41:35;;;;;;;28.95;19.55;;;18.20;1.00;;;;;;10439601;28;20212;-79
2023/09/27 21:46:56;;;;;;;34.20;20.92;;;18.20;1.00;;;;;;10439707;28;20216;-77
2023/09/27 21:52:17;;;;;;;30.08;20.08;;;18.10;99.90;;;;;;10439425;28;20218;-79
2023/09/27 21:57:39;;;;;;;29.13;20.55;;;18.20;1.00;;;;;;10438913;28;20203;-78
2023/09/27 22:03:04;;;;;;;26.13;18.73;;;18.20;1.00;;;;;;10439220;28;20197;-78
2023/09/27 22:08:25;;;;;;;25.02;17.25;;;18.20;1.00;;;;;;10410007;28;20287;-78
2023/09/27 22:13:50;;;;;;;30.30;21.80;;;18.30;1.00;;;;;;10384904;28;20348;-78
2023/09/27 22:19:12;;;;;;;37.10;23.38;;;18.30;1.00;;;;;;10397657;28;20264;-78
2023/09/27 22:24:37;;;;;;;39.15;24.15;;;18.20;99.90;;;;;;10395591;28;20197;-79
2023/09/27 22:29:59;;;;;;;31.25;19.75;;;18.20;99.90;;;;;;10397472;28;20217;-79
2023/09/27 22:35:27;;;;;;;32.92;19.90;;;18.10;1.00;;;;;;10397345;28;20480;-79
2023/09/27 22:40:48;;;;;;;31.63;21.40;;;18.00;99.90;;;;;;10395717;28;20469;-78
2023/09/27 22:46:09;;;;;;;25.75;17.73;;;17.90;1.00;;;;;;10395705;28;20268;-77
2023/09/27 22:51:31;;;;;;;21.95;16.95;;;17.90;1.00;;;;;;10396146;28;20260;-79
2023/09/27 22:56:52;;;;;;;21.83;16.13;;;17.90;99.90;;;;;;10395418;28;20200;-78
2023/09/27 23:02:14;;;;;;;26.95;18.92;;;17.80;1.00;;;;;;10396102;28;20199;-78
2023/09/27 23:07:35;;;;;;;32.22;20.88;;;17.80;1.00;;;;;;10422744;28;20278;-79
2023/09/27 23:13:04;;;;;;;34.42;22.17;;;17.80;1.00;;;;;;10399309;28;20193;-79
2023/09/27 23:18:29;;;;;;;30.48;19.85;;;17.80;99.90;;;;;;10406382;28;20383;-78
2023/09/27 23:23:56;;;;;;;25.30;17.17;;;17.80;1.00;;;;;;10393466;28;20205;-78
2023/09/27 23:34:54;;;;;;;20.08;13.85;;;17.70;99.90;;;;;;10435209;28;20200;-78
2023/09/27 23:40:17;;;;;;;19.80;14.10;;;17.60;1.00;;;;;;10436383;28;20229;-79
2023/09/27 23:45:39;;;;;;;20.58;14.23;;;17.50;1.00;;;;;;10428051;28;20189;-76
2023/09/27 23:51:03;;;;;;;15.50;13.73;;;17.40;99.90;;;;;;10445753;28;20228;-77
2023/09/27 23:56:25;;;;;;;17.58;13.52;;;17.30;99.90;;;;;;10435976;28;20192;-77
